createdAt,value
2023-11-24T00:00:39.714Z,11.25
2023-11-24T00:06:29.880Z,11.24
2023-11-24T00:12:20.320Z,11.03
2023-11-24T00:18:07.515Z,10.98
2023-11-24T00:23:56.592Z,10.94
2023-11-24T00:29:46.117Z,10.89
2023-11-24T00:35:36.579Z,10.88
2023-11-24T00:41:26.171Z,10.73
2023-11-24T00:47:18.289Z,10.73
2023-11-24T00:53:08.744Z,10.88
2023-11-24T00:58:58.523Z,10.76
2023-11-24T01:04:49.666Z,10.64
2023-11-24T01:10:36.794Z,10.73
2023-11-24T01:16:24.689Z,10.78
2023-11-24T01:22:11.813Z,10.74
2023-11-24T01:28:02.601Z,10.70
2023-11-24T01:33:50.855Z,10.83
2023-11-24T01:39:40.004Z,11.06
2023-11-24T01:45:26.810Z,10.79
2023-11-24T01:51:13.703Z,10.61
2023-11-24T01:57:02.878Z,10.50
2023-11-24T02:02:50.002Z,10.70
2023-11-24T02:08:37.603Z,10.49
2023-11-24T02:14:37.625Z,10.56
2023-11-24T02:20:26.553Z,10.87
2023-11-24T02:26:15.730Z,10.73
2023-11-24T02:32:02.664Z,10.54
2023-11-24T02:37:51.737Z,10.80
2023-11-24T02:43:39.641Z,10.71
2023-11-24T02:49:36.804Z,10.67
2023-11-24T02:55:24.224Z,10.68
2023-11-24T03:01:12.117Z,10.92
2023-11-24T03:07:01.082Z,10.90
2023-11-24T03:12:48.511Z,10.65
2023-11-24T03:18:38.026Z,10.73
2023-11-24T03:24:28.056Z,10.61
2023-11-24T03:30:15.218Z,10.49
2023-11-24T03:36:02.421Z,10.57
2023-11-24T03:41:49.681Z,10.44
2023-11-24T03:47:45.839Z,10.56
2023-11-24T03:53:36.396Z,10.45
2023-11-24T03:59:24.098Z,10.70
2023-11-24T04:05:14.650Z,10.40
2023-11-24T04:11:03.539Z,10.50
2023-11-24T04:16:51.536Z,10.56
2023-11-24T04:22:39.119Z,10.57
2023-11-24T04:28:26.993Z,10.54
2023-11-24T04:34:13.997Z,10.59
2023-11-24T04:40:01.052Z,10.44
2023-11-24T04:45:47.916Z,10.49
2023-11-24T04:51:37.532Z,10.41
2023-11-24T04:57:29.549Z,10.38
2023-11-24T05:03:20.327Z,10.43
2023-11-24T05:09:08.087Z,10.37
2023-11-24T05:14:59.105Z,10.19
2023-11-24T05:20:46.643Z,10.11
2023-11-24T05:26:34.392Z,10.16
2023-11-24T05:32:24.284Z,10.24
2023-11-24T05:38:11.469Z,10.22
2023-11-24T05:44:00.860Z,10.02
2023-11-24T05:49:50.558Z,10.10
2023-11-24T05:55:38.003Z,10.00
2023-11-24T06:01:24.792Z,9.77
2023-11-24T06:07:11.901Z,9.82
2023-11-24T06:13:02.235Z,9.95
2023-11-24T06:18:49.338Z,9.84
2023-11-24T06:24:43.200Z,9.91
2023-11-24T06:30:30.961Z,9.92
2023-11-24T06:36:19.147Z,9.89
2023-11-24T06:42:06.308Z,9.80
2023-11-24T06:47:53.297Z,9.79
2023-11-24T06:53:45.879Z,9.71
2023-11-24T06:59:36.363Z,9.63
2023-11-24T07:12:17.360Z,9.53
2023-11-24T07:18:13.509Z,9.42
2023-11-24T07:24:33.843Z,9.46
2023-11-24T07:30:29.804Z,9.66
2023-11-24T07:36:18.393Z,9.63
2023-11-24T07:42:05.695Z,9.46
2023-11-24T07:47:54.996Z,9.41
2023-11-24T07:53:46.481Z,9.26
2023-11-24T07:59:35.994Z,9.36
2023-11-24T08:05:26.217Z,9.38
2023-11-24T08:11:18.964Z,9.15
2023-11-24T08:17:08.010Z,9.07
2023-11-24T08:23:04.290Z,9.12
2023-11-24T08:29:00.468Z,9.20
2023-11-24T08:35:06.730Z,9.26
2023-11-24T08:40:58.472Z,9.23
2023-11-24T08:46:48.392Z,9.01
2023-11-24T08:52:36.091Z,9.14
2023-11-24T08:58:23.820Z,9.19
2023-11-24T09:04:11.737Z,9.17
2023-11-24T09:09:58.943Z,9.23
2023-11-24T09:15:48.343Z,9.33
2023-11-24T09:21:35.959Z,9.20
2023-11-24T09:27:23.598Z,9.23
2023-11-24T09:33:12.449Z,9.38
2023-11-24T09:39:02.305Z,9.35
2023-11-24T09:44:56.189Z,9.43
2023-11-24T09:50:53.168Z,9.68
2023-11-24T09:56:44.919Z,9.68
2023-11-24T10:02:32.193Z,9.53
2023-11-24T10:08:19.775Z,9.30
2023-11-24T10:14:13.830Z,9.03
2023-11-24T10:20:12.724Z,9.03
2023-11-24T10:26:00.903Z,9.06
2023-11-24T10:31:50.113Z,9.22
2023-11-24T10:37:40.998Z,9.12
2023-11-24T10:43:35.744Z,9.20
2023-11-24T10:49:40.034Z,9.17
2023-11-24T10:55:31.830Z,9.05
2023-11-24T11:01:32.730Z,9.23
2023-11-24T11:07:31.273Z,8.94
2023-11-24T11:13:19.468Z,8.77
2023-11-24T11:19:34.826Z,8.81
2023-11-24T11:25:25.019Z,8.94
2023-11-24T11:31:36.849Z,9.07
2023-11-24T11:37:30.062Z,8.84
2023-11-24T11:43:17.870Z,8.51
2023-11-24T11:49:10.115Z,8.50
2023-11-24T11:54:58.399Z,8.48
2023-11-24T12:00:50.060Z,8.12
2023-11-24T12:06:37.098Z,8.55
2023-11-24T12:12:25.511Z,8.88
2023-11-24T12:18:16.572Z,9.16
2023-11-24T12:24:15.073Z,8.86
2023-11-24T12:30:09.308Z,8.46
2023-11-24T12:35:57.061Z,8.20
2023-11-24T12:41:47.075Z,8.18
2023-11-24T12:53:39.386Z,8.08
2023-11-24T12:59:29.360Z,7.78
2023-11-24T13:05:19.415Z,7.93
2023-11-24T13:11:08.902Z,7.81
2023-11-24T13:16:56.464Z,7.82
2023-11-24T13:22:50.105Z,7.93
2023-11-24T13:28:39.366Z,7.83
2023-11-24T13:34:26.553Z,7.81
2023-11-24T13:40:18.677Z,7.47
2023-11-24T13:46:08.613Z,7.56
2023-11-24T13:51:55.795Z,7.55
2023-11-24T13:57:46.889Z,7.64
2023-11-24T14:03:39.701Z,7.89
2023-11-24T14:09:41.359Z,7.86
2023-11-24T14:15:28.777Z,7.35
2023-11-24T14:21:15.830Z,7.27
2023-11-24T14:27:02.825Z,7.02
2023-11-24T14:32:49.692Z,6.95
2023-11-24T14:38:37.023Z,6.74
2023-11-24T14:44:25.013Z,6.79
2023-11-24T14:50:12.672Z,6.82
2023-11-24T14:56:04.661Z,6.87
2023-11-24T15:02:06.143Z,6.83
2023-11-24T15:07:57.413Z,6.77
2023-11-24T15:13:49.308Z,6.69
2023-11-24T15:19:36.337Z,6.63
2023-11-24T15:25:28.319Z,6.62
2023-11-24T15:31:17.115Z,6.48
2023-11-24T15:37:05.737Z,6.42
2023-11-24T15:42:56.473Z,6.33
2023-11-24T15:48:43.438Z,6.31
2023-11-24T15:54:30.507Z,6.24
2023-11-24T16:00:27.302Z,6.15
2023-11-24T16:06:19.196Z,6.13
2023-11-24T16:12:16.511Z,6.07
2023-11-24T16:18:07.209Z,5.97
2023-11-24T16:24:00.842Z,5.97
2023-11-24T16:29:50.334Z,5.95
2023-11-24T16:35:39.799Z,5.93
2023-11-24T16:41:27.361Z,5.95
2023-11-24T16:47:24.033Z,6.17
2023-11-24T16:53:11.277Z,6.31
2023-11-24T16:59:00.760Z,6.27
2023-11-24T17:04:53.236Z,6.01
2023-11-24T17:10:43.438Z,6.02
2023-11-24T17:16:38.043Z,6.03
2023-11-24T17:22:28.267Z,5.69
2023-11-24T17:28:18.301Z,5.54
2023-11-24T17:34:06.127Z,5.47
2023-11-24T17:39:53.232Z,5.52
2023-11-24T17:45:40.717Z,5.74
2023-11-24T17:51:35.860Z,5.52
2023-11-24T17:57:29.710Z,5.50
2023-11-24T18:03:23.083Z,5.66
2023-11-24T18:09:12.495Z,5.33
2023-11-24T18:15:01.944Z,4.95
2023-11-24T18:20:49.548Z,5.06
2023-11-24T18:26:41.973Z,5.18
2023-11-24T18:32:30.832Z,5.13
2023-11-24T18:38:27.785Z,5.19
2023-11-24T18:44:14.986Z,5.21
2023-11-24T18:50:14.929Z,5.10
2023-11-24T18:56:43.019Z,4.93
2023-11-24T19:02:48.375Z,4.95
2023-11-24T19:08:53.134Z,4.83
2023-11-24T19:15:40.444Z,5.03
2023-11-24T19:21:58.429Z,4.85
2023-11-24T19:28:42.279Z,4.86
2023-11-24T19:35:07.353Z,4.75
2023-11-24T19:41:27.340Z,4.76
2023-11-24T19:47:16.229Z,4.67
2023-11-24T19:53:03.369Z,4.63
2023-11-24T19:58:52.848Z,4.59
2023-11-24T20:04:44.664Z,4.70
2023-11-24T20:10:31.820Z,4.83
2023-11-24T20:16:27.513Z,4.92
2023-11-24T20:22:43.029Z,4.75
2023-11-24T20:28:33.295Z,4.66
2023-11-24T20:34:20.546Z,4.52
2023-11-24T20:40:10.470Z,4.34
2023-11-24T20:46:00.685Z,4.23
2023-11-24T20:51:52.289Z,4.11
2023-11-24T20:57:41.705Z,4.26
2023-11-24T21:04:19.075Z,4.53
2023-11-24T21:10:32.107Z,4.55
2023-11-24T21:16:24.069Z,4.62
2023-11-24T21:22:13.860Z,4.54
2023-11-24T21:28:22.493Z,4.48
2023-11-24T21:34:38.166Z,4.35
2023-11-24T21:41:38.071Z,4.41
2023-11-24T21:47:21.666Z,4.43
2023-11-24T22:00:59.399Z,4.18
2023-11-24T22:06:48.931Z,3.98
2023-11-24T22:12:39.101Z,3.98
2023-11-24T22:18:32.717Z,4.01
2023-11-24T22:24:22.922Z,4.08
2023-11-24T22:30:13.766Z,3.95
2023-11-24T22:36:07.027Z,4.15
2023-11-24T22:42:03.591Z,4.03
2023-11-24T22:48:01.477Z,4.11
2023-11-24T22:53:50.398Z,4.14
2023-11-24T22:59:52.003Z,4.07
2023-11-24T23:05:47.274Z,3.98
2023-11-24T23:11:42.125Z,4.03
2023-11-24T23:17:34.205Z,3.99
2023-11-24T23:23:27.809Z,3.84
2023-11-24T23:29:14.749Z,3.84
2023-11-24T23:35:16.940Z,3.82
2023-11-24T23:41:03.771Z,3.58
2023-11-24T23:46:52.096Z,3.44
2023-11-24T23:52:44.268Z,3.38
2023-11-24T23:58:35.511Z,3.36
